sensor_id;sensor_type;location;lat;lon;timestamp;temperature;humidity
22917;DHT22;11624;53.250;7.456;2023-04-08T00:01:41;10.97;52.72
22917;DHT22;11624;53.250;7.456;2023-04-08T00:04:10;10.95;52.97
22917;DHT22;11624;53.250;7.456;2023-04-08T00:06:40;10.94;52.97
22917;DHT22;11624;53.250;7.456;2023-04-08T00:09:08;10.92;53.10
22917;DHT22;11624;53.250;7.456;2023-04-08T00:11:36;10.89;53.27
22917;DHT22;11624;53.250;7.456;2023-04-08T00:14:04;10.88;53.28
22917;DHT22;11624;53.250;7.456;2023-04-08T00:16:34;10.93;53.16
22917;DHT22;11624;53.250;7.456;2023-04-08T00:19:02;10.95;53.07
22917;DHT22;11624;53.250;7.456;2023-04-08T00:21:32;10.97;53.07
22917;DHT22;11624;53.250;7.456;2023-04-08T00:24:00;10.99;53.04
22917;DHT22;11624;53.250;7.456;2023-04-08T00:26:28;11.02;53.03
22917;DHT22;11624;53.250;7.456;2023-04-08T00:28:56;11.00;53.22
22917;DHT22;11624;53.250;7.456;2023-04-08T00:31:24;11.01;53.39
22917;DHT22;11624;53.250;7.456;2023-04-08T00:33:54;10.95;53.81
22917;DHT22;11624;53.250;7.456;2023-04-08T00:36:22;10.92;54.20
22917;DHT22;11624;53.250;7.456;2023-04-08T00:38:53;10.99;54.07
22917;DHT22;11624;53.250;7.456;2023-04-08T00:41:22;11.09;53.91
22917;DHT22;11624;53.250;7.456;2023-04-08T00:43:51;11.17;53.81
22917;DHT22;11624;53.250;7.456;2023-04-08T00:46:19;11.18;53.81
22917;DHT22;11624;53.250;7.456;2023-04-08T00:48:48;11.24;53.74
22917;DHT22;11624;53.250;7.456;2023-04-08T00:51:18;11.28;53.79
22917;DHT22;11624;53.250;7.456;2023-04-08T00:53:47;11.24;53.98
22917;DHT22;11624;53.250;7.456;2023-04-08T00:56:15;11.27;53.92
22917;DHT22;11624;53.250;7.456;2023-04-08T00:58:43;11.31;53.68
22917;DHT22;11624;53.250;7.456;2023-04-08T01:01:14;11.37;53.46
22917;DHT22;11624;53.250;7.456;2023-04-08T01:03:56;11.34;52.94
22917;DHT22;11624;53.250;7.456;2023-04-08T01:06:31;11.34;53.03
22917;DHT22;11624;53.250;7.456;2023-04-08T01:09:04;11.36;53.08
22917;DHT22;11624;53.250;7.456;2023-04-08T01:11:33;11.36;52.90
22917;DHT22;11624;53.250;7.456;2023-04-08T01:14:04;11.29;52.92
22917;DHT22;11624;53.250;7.456;2023-04-08T01:16:33;11.26;52.91
22917;DHT22;11624;53.250;7.456;2023-04-08T01:19:02;11.24;52.81
22917;DHT22;11624;53.250;7.456;2023-04-08T01:21:34;11.23;52.69
22917;DHT22;11624;53.250;7.456;2023-04-08T01:24:08;11.20;52.63
22917;DHT22;11624;53.250;7.456;2023-04-08T01:26:40;11.17;52.85
22917;DHT22;11624;53.250;7.456;2023-04-08T01:29:10;11.16;52.98
22917;DHT22;11624;53.250;7.456;2023-04-08T01:31:40;11.16;53.05
22917;DHT22;11624;53.250;7.456;2023-04-08T01:34:09;11.20;53.08
22917;DHT22;11624;53.250;7.456;2023-04-08T01:36:38;11.22;53.16
22917;DHT22;11624;53.250;7.456;2023-04-08T01:39:07;11.25;53.12
22917;DHT22;11624;53.250;7.456;2023-04-08T01:41:36;11.31;53.13
22917;DHT22;11624;53.250;7.456;2023-04-08T01:44:06;11.37;53.14
22917;DHT22;11624;53.250;7.456;2023-04-08T01:46:36;11.39;53.26
22917;DHT22;11624;53.250;7.456;2023-04-08T01:49:06;11.45;53.27
22917;DHT22;11624;53.250;7.456;2023-04-08T01:51:36;11.52;53.23
22917;DHT22;11624;53.250;7.456;2023-04-08T01:54:05;11.54;53.24
22917;DHT22;11624;53.250;7.456;2023-04-08T01:56:36;11.58;53.17
22917;DHT22;11624;53.250;7.456;2023-04-08T01:59:10;11.61;53.16
22917;DHT22;11624;53.250;7.456;2023-04-08T02:01:40;11.62;53.35
22917;DHT22;11624;53.250;7.456;2023-04-08T02:04:10;11.67;53.38
22917;DHT22;11624;53.250;7.456;2023-04-08T02:06:39;11.70;53.32
22917;DHT22;11624;53.250;7.456;2023-04-08T02:09:07;11.70;53.37
22917;DHT22;11624;53.250;7.456;2023-04-08T02:11:36;11.74;53.36
22917;DHT22;11624;53.250;7.456;2023-04-08T02:14:04;11.78;53.36
22917;DHT22;11624;53.250;7.456;2023-04-08T02:16:39;11.79;53.03
22917;DHT22;11624;53.250;7.456;2023-04-08T02:19:14;11.84;53.17
22917;DHT22;11624;53.250;7.456;2023-04-08T02:21:47;11.90;53.20
22917;DHT22;11624;53.250;7.456;2023-04-08T02:24:17;11.96;53.21
22917;DHT22;11624;53.250;7.456;2023-04-08T02:26:46;12.00;53.12
22917;DHT22;11624;53.250;7.456;2023-04-08T02:29:18;12.03;53.24
22917;DHT22;11624;53.250;7.456;2023-04-08T02:31:47;12.02;53.34
22917;DHT22;11624;53.250;7.456;2023-04-08T02:34:17;12.03;53.39
22917;DHT22;11624;53.250;7.456;2023-04-08T02:36:47;12.03;53.54
22917;DHT22;11624;53.250;7.456;2023-04-08T02:39:17;12.01;53.69
22917;DHT22;11624;53.250;7.456;2023-04-08T02:41:47;12.08;53.65
22917;DHT22;11624;53.250;7.456;2023-04-08T02:44:15;12.05;53.81
22917;DHT22;11624;53.250;7.456;2023-04-08T02:46:43;12.07;53.81
22917;DHT22;11624;53.250;7.456;2023-04-08T02:49:13;12.10;53.78
22917;DHT22;11624;53.250;7.456;2023-04-08T02:51:41;12.14;53.62
22917;DHT22;11624;53.250;7.456;2023-04-08T02:54:09;12.18;53.44
22917;DHT22;11624;53.250;7.456;2023-04-08T02:56:37;12.16;53.46
22917;DHT22;11624;53.250;7.456;2023-04-08T02:59:05;12.15;53.45
22917;DHT22;11624;53.250;7.456;2023-04-08T03:01:33;12.17;53.40
22917;DHT22;11624;53.250;7.456;2023-04-08T03:04:01;12.16;53.49
22917;DHT22;11624;53.250;7.456;2023-04-08T03:06:31;12.15;53.52
22917;DHT22;11624;53.250;7.456;2023-04-08T03:08:59;12.18;53.49
22917;DHT22;11624;53.250;7.456;2023-04-08T03:11:27;12.26;53.40
22917;DHT22;11624;53.250;7.456;2023-04-08T03:13:55;12.31;53.34
22917;DHT22;11624;53.250;7.456;2023-04-08T03:16:23;12.33;53.33
22917;DHT22;11624;53.250;7.456;2023-04-08T03:18:51;12.38;53.27
22917;DHT22;11624;53.250;7.456;2023-04-08T03:21:19;12.43;53.24
22917;DHT22;11624;53.250;7.456;2023-04-08T03:23:49;12.45;53.23
22917;DHT22;11624;53.250;7.456;2023-04-08T03:26:17;12.43;53.39
22917;DHT22;11624;53.250;7.456;2023-04-08T03:28:45;12.47;53.30
22917;DHT22;11624;53.250;7.456;2023-04-08T03:31:13;12.50;53.27
22917;DHT22;11624;53.250;7.456;2023-04-08T03:33:42;12.47;53.28
22917;DHT22;11624;53.250;7.456;2023-04-08T03:36:10;12.51;53.28
22917;DHT22;11624;53.250;7.456;2023-04-08T03:38:38;12.53;53.27
22917;DHT22;11624;53.250;7.456;2023-04-08T03:41:07;12.56;53.30
22917;DHT22;11624;53.250;7.456;2023-04-08T03:43:35;12.57;53.36
22917;DHT22;11624;53.250;7.456;2023-04-08T03:46:03;12.57;53.37
22917;DHT22;11624;53.250;7.456;2023-04-08T03:48:32;12.60;53.27
22917;DHT22;11624;53.250;7.456;2023-04-08T03:51:00;12.60;53.27
22917;DHT22;11624;53.250;7.456;2023-04-08T03:53:28;12.53;53.42
22917;DHT22;11624;53.250;7.456;2023-04-08T03:55:56;12.50;53.57
22917;DHT22;11624;53.250;7.456;2023-04-08T03:58:26;12.55;53.54
22917;DHT22;11624;53.250;7.456;2023-04-08T04:00:54;12.61;53.44
22917;DHT22;11624;53.250;7.456;2023-04-08T04:03:22;12.62;53.43
22917;DHT22;11624;53.250;7.456;2023-04-08T04:05:50;12.65;53.43
22917;DHT22;11624;53.250;7.456;2023-04-08T04:08:18;12.62;53.49
22917;DHT22;11624;53.250;7.456;2023-04-08T04:10:46;12.61;53.51
22917;DHT22;11624;53.250;7.456;2023-04-08T04:13:14;12.64;53.37
22917;DHT22;11624;53.250;7.456;2023-04-08T04:15:44;12.57;53.46
22917;DHT22;11624;53.250;7.456;2023-04-08T04:18:12;12.60;53.52
22917;DHT22;11624;53.250;7.456;2023-04-08T04:20:40;12.64;53.48
22917;DHT22;11624;53.250;7.456;2023-04-08T04:23:08;12.66;53.34
22917;DHT22;11624;53.250;7.456;2023-04-08T04:25:40;12.70;53.16
22917;DHT22;11624;53.250;7.456;2023-04-08T04:28:08;12.71;53.12
22917;DHT22;11624;53.250;7.456;2023-04-08T04:30:36;12.71;53.15
22917;DHT22;11624;53.250;7.456;2023-04-08T04:33:06;12.74;53.07
22917;DHT22;11624;53.250;7.456;2023-04-08T04:35:34;12.78;52.95
22917;DHT22;11624;53.250;7.456;2023-04-08T04:38:02;12.78;52.87
22917;DHT22;11624;53.250;7.456;2023-04-08T04:40:33;12.77;52.82
22917;DHT22;11624;53.250;7.456;2023-04-08T04:43:01;12.81;52.75
22917;DHT22;11624;53.250;7.456;2023-04-08T04:45:30;12.74;52.91
22917;DHT22;11624;53.250;7.456;2023-04-08T04:47:58;12.77;52.82
22917;DHT22;11624;53.250;7.456;2023-04-08T04:50:27;12.77;52.84
22917;DHT22;11624;53.250;7.456;2023-04-08T04:52:55;12.86;52.75
22917;DHT22;11624;53.250;7.456;2023-04-08T04:55:23;12.86;52.80
22917;DHT22;11624;53.250;7.456;2023-04-08T04:57:52;12.91;52.75
22917;DHT22;11624;53.250;7.456;2023-04-08T05:00:20;12.93;52.72
22917;DHT22;11624;53.250;7.456;2023-04-08T05:02:48;12.89;52.77
22917;DHT22;11624;53.250;7.456;2023-04-08T05:05:16;12.92;52.81
22917;DHT22;11624;53.250;7.456;2023-04-08T05:07:46;13.00;52.65
22917;DHT22;11624;53.250;7.456;2023-04-08T05:10:14;13.06;52.53
22917;DHT22;11624;53.250;7.456;2023-04-08T05:12:42;13.07;52.47
22917;DHT22;11624;53.250;7.456;2023-04-08T05:15:10;13.07;52.51
22917;DHT22;11624;53.250;7.456;2023-04-08T05:17:38;13.03;52.59
22917;DHT22;11624;53.250;7.456;2023-04-08T05:20:07;13.02;52.69
22917;DHT22;11624;53.250;7.456;2023-04-08T05:22:35;13.03;52.74
22917;DHT22;11624;53.250;7.456;2023-04-08T05:25:06;13.09;52.58
22917;DHT22;11624;53.250;7.456;2023-04-08T05:27:34;13.11;52.53
22917;DHT22;11624;53.250;7.456;2023-04-08T05:30:03;13.16;52.43
22917;DHT22;11624;53.250;7.456;2023-04-08T05:32:31;13.16;52.41
22917;DHT22;11624;53.250;7.456;2023-04-08T05:35:01;13.18;52.33
22917;DHT22;11624;53.250;7.456;2023-04-08T05:37:30;13.20;52.37
22917;DHT22;11624;53.250;7.456;2023-04-08T05:39:58;13.24;52.39
22917;DHT22;11624;53.250;7.456;2023-04-08T05:42:27;13.23;52.46
22917;DHT22;11624;53.250;7.456;2023-04-08T05:44:55;13.21;52.45
22917;DHT22;11624;53.250;7.456;2023-04-08T05:47:23;13.25;52.49
22917;DHT22;11624;53.250;7.456;2023-04-08T05:49:51;13.27;52.46
22917;DHT22;11624;53.250;7.456;2023-04-08T05:52:19;13.26;52.53
22917;DHT22;11624;53.250;7.456;2023-04-08T05:54:48;13.30;52.52
22917;DHT22;11624;53.250;7.456;2023-04-08T05:57:16;13.34;52.54
22917;DHT22;11624;53.250;7.456;2023-04-08T05:59:45;13.38;52.52
22917;DHT22;11624;53.250;7.456;2023-04-08T06:02:13;13.44;52.44
22917;DHT22;11624;53.250;7.456;2023-04-08T06:04:41;13.40;52.35
22917;DHT22;11624;53.250;7.456;2023-04-08T06:07:10;13.43;52.43
22917;DHT22;11624;53.250;7.456;2023-04-08T06:09:38;13.40;52.46
22917;DHT22;11624;53.250;7.456;2023-04-08T06:12:06;13.41;52.43
22917;DHT22;11624;53.250;7.456;2023-04-08T06:14:34;13.37;52.51
22917;DHT22;11624;53.250;7.456;2023-04-08T06:17:03;13.41;52.55
22917;DHT22;11624;53.250;7.456;2023-04-08T06:19:31;13.47;52.56
22917;DHT22;11624;53.250;7.456;2023-04-08T06:22:00;13.55;52.47
22917;DHT22;11624;53.250;7.456;2023-04-08T06:24:28;13.54;52.32
22917;DHT22;11624;53.250;7.456;2023-04-08T06:26:56;13.51;52.43
22917;DHT22;11624;53.250;7.456;2023-04-08T06:29:24;13.51;52.48
22917;DHT22;11624;53.250;7.456;2023-04-08T06:31:52;13.47;52.62
22917;DHT22;11624;53.250;7.456;2023-04-08T06:34:22;13.51;52.67
22917;DHT22;11624;53.250;7.456;2023-04-08T06:36:50;13.53;52.72
22917;DHT22;11624;53.250;7.456;2023-04-08T06:39:18;13.60;52.65
22917;DHT22;11624;53.250;7.456;2023-04-08T06:41:47;13.65;52.68
22917;DHT22;11624;53.250;7.456;2023-04-08T06:44:31;13.78;52.49
22917;DHT22;11624;53.250;7.456;2023-04-08T06:46:59;13.80;52.45
22917;DHT22;11624;53.250;7.456;2023-04-08T06:49:28;13.82;52.36
22917;DHT22;11624;53.250;7.456;2023-04-08T06:51:57;13.80;52.36
22917;DHT22;11624;53.250;7.456;2023-04-08T06:54:25;13.80;52.38
22917;DHT22;11624;53.250;7.456;2023-04-08T06:56:53;13.78;52.39
22917;DHT22;11624;53.250;7.456;2023-04-08T06:59:21;13.74;52.57
22917;DHT22;11624;53.250;7.456;2023-04-08T07:01:49;13.80;52.65
22917;DHT22;11624;53.250;7.456;2023-04-08T07:04:17;13.88;52.59
22917;DHT22;11624;53.250;7.456;2023-04-08T07:06:47;13.92;52.41
22917;DHT22;11624;53.250;7.456;2023-04-08T07:09:15;13.92;52.49
22917;DHT22;11624;53.250;7.456;2023-04-08T07:11:43;13.99;52.56
22917;DHT22;11624;53.250;7.456;2023-04-08T07:14:11;14.18;52.58
22917;DHT22;11624;53.250;7.456;2023-04-08T07:16:40;14.37;52.62
22917;DHT22;11624;53.250;7.456;2023-04-08T07:19:08;14.49;52.07
22917;DHT22;11624;53.250;7.456;2023-04-08T07:21:36;14.60;51.67
22917;DHT22;11624;53.250;7.456;2023-04-08T07:24:06;14.66;51.19
22917;DHT22;11624;53.250;7.456;2023-04-08T07:26:34;14.58;51.40
22917;DHT22;11624;53.250;7.456;2023-04-08T07:29:02;14.71;51.10
22917;DHT22;11624;53.250;7.456;2023-04-08T07:31:30;14.60;50.80
22917;DHT22;11624;53.250;7.456;2023-04-08T07:33:58;14.54;50.93
22917;DHT22;11624;53.250;7.456;2023-04-08T07:36:26;14.59;50.92
22917;DHT22;11624;53.250;7.456;2023-04-08T07:38:55;14.64;50.81
22917;DHT22;11624;53.250;7.456;2023-04-08T07:41:24;14.72;50.67
22917;DHT22;11624;53.250;7.456;2023-04-08T07:43:52;14.79;50.63
22917;DHT22;11624;53.250;7.456;2023-04-08T07:46:21;14.70;50.65
22917;DHT22;11624;53.250;7.456;2023-04-08T07:48:49;14.73;50.59
22917;DHT22;11624;53.250;7.456;2023-04-08T07:51:18;14.81;50.52
22917;DHT22;11624;53.250;7.456;2023-04-08T07:53:47;14.80;50.58
22917;DHT22;11624;53.250;7.456;2023-04-08T07:56:15;14.82;50.51
22917;DHT22;11624;53.250;7.456;2023-04-08T07:58:46;14.80;50.56
22917;DHT22;11624;53.250;7.456;2023-04-08T08:01:20;14.89;50.72
22917;DHT22;11624;53.250;7.456;2023-04-08T08:03:49;15.02;50.48
22917;DHT22;11624;53.250;7.456;2023-04-08T08:06:19;15.04;50.33
22917;DHT22;11624;53.250;7.456;2023-04-08T08:08:48;14.99;50.37
22917;DHT22;11624;53.250;7.456;2023-04-08T08:11:16;15.01;50.48
22917;DHT22;11624;53.250;7.456;2023-04-08T08:13:45;15.02;50.53
22917;DHT22;11624;53.250;7.456;2023-04-08T08:16:13;15.04;50.53
22917;DHT22;11624;53.250;7.456;2023-04-08T08:18:42;15.09;50.48
22917;DHT22;11624;53.250;7.456;2023-04-08T08:21:10;15.13;50.48
22917;DHT22;11624;53.250;7.456;2023-04-08T08:23:38;15.06;50.51
22917;DHT22;11624;53.250;7.456;2023-04-08T08:26:08;15.03;50.87
22917;DHT22;11624;53.250;7.456;2023-04-08T08:28:36;15.08;50.98
22917;DHT22;11624;53.250;7.456;2023-04-08T08:31:06;15.10;51.12
22917;DHT22;11624;53.250;7.456;2023-04-08T08:33:34;15.17;50.93
22917;DHT22;11624;53.250;7.456;2023-04-08T08:36:03;15.22;50.82
22917;DHT22;11624;53.250;7.456;2023-04-08T08:38:33;15.29;51.04
22917;DHT22;11624;53.250;7.456;2023-04-08T08:41:01;15.43;50.81
22917;DHT22;11624;53.250;7.456;2023-04-08T08:43:30;15.54;50.32
22917;DHT22;11624;53.250;7.456;2023-04-08T08:45:59;15.55;50.05
22917;DHT22;11624;53.250;7.456;2023-04-08T08:48:29;15.40;50.03
22917;DHT22;11624;53.250;7.456;2023-04-08T08:50:58;15.37;50.26
22917;DHT22;11624;53.250;7.456;2023-04-08T08:53:28;15.32;50.25
22917;DHT22;11624;53.250;7.456;2023-04-08T08:56:00;15.32;50.72
22917;DHT22;11624;53.250;7.456;2023-04-08T08:58:31;15.33;50.92
22917;DHT22;11624;53.250;7.456;2023-04-08T09:01:00;15.47;50.60
22917;DHT22;11624;53.250;7.456;2023-04-08T09:03:29;15.53;50.54
22917;DHT22;11624;53.250;7.456;2023-04-08T09:06:00;15.60;50.54
22917;DHT22;11624;53.250;7.456;2023-04-08T09:08:30;15.69;50.48
22917;DHT22;11624;53.250;7.456;2023-04-08T09:11:12;15.66;50.24
22917;DHT22;11624;53.250;7.456;2023-04-08T09:13:41;15.73;50.22
22917;DHT22;11624;53.250;7.456;2023-04-08T09:16:11;15.81;50.34
22917;DHT22;11624;53.250;7.456;2023-04-08T09:18:41;15.93;50.28
22917;DHT22;11624;53.250;7.456;2023-04-08T09:21:11;16.05;50.11
22917;DHT22;11624;53.250;7.456;2023-04-08T09:23:41;16.16;49.75
22917;DHT22;11624;53.250;7.456;2023-04-08T09:26:10;16.18;49.86
22917;DHT22;11624;53.250;7.456;2023-04-08T09:28:39;16.19;49.31
22917;DHT22;11624;53.250;7.456;2023-04-08T09:31:22;16.10;49.26
22917;DHT22;11624;53.250;7.456;2023-04-08T09:33:53;16.10;49.58
22917;DHT22;11624;53.250;7.456;2023-04-08T09:36:21;16.21;49.54
22917;DHT22;11624;53.250;7.456;2023-04-08T09:38:49;16.31;49.22
22917;DHT22;11624;53.250;7.456;2023-04-08T09:41:18;16.41;49.19
22917;DHT22;11624;53.250;7.456;2023-04-08T09:43:50;16.39;48.81
22917;DHT22;11624;53.250;7.456;2023-04-08T09:46:25;16.30;48.90
22917;DHT22;11624;53.250;7.456;2023-04-08T09:49:07;16.26;48.89
22917;DHT22;11624;53.250;7.456;2023-04-08T09:51:40;16.24;49.08
22917;DHT22;11624;53.250;7.456;2023-04-08T09:54:13;16.13;49.22
22917;DHT22;11624;53.250;7.456;2023-04-08T09:56:46;16.15;49.46
22917;DHT22;11624;53.250;7.456;2023-04-08T09:59:17;16.29;49.66
22917;DHT22;11624;53.250;7.456;2023-04-08T10:01:51;16.44;49.13
22917;DHT22;11624;53.250;7.456;2023-04-08T10:04:23;16.51;49.04
22917;DHT22;11624;53.250;7.456;2023-04-08T10:06:56;16.59;48.66
22917;DHT22;11624;53.250;7.456;2023-04-08T10:09:26;16.69;48.76
22917;DHT22;11624;53.250;7.456;2023-04-08T10:11:55;16.79;48.47
22917;DHT22;11624;53.250;7.456;2023-04-08T10:14:23;16.86;47.91
22917;DHT22;11624;53.250;7.456;2023-04-08T10:17:25;16.79;47.41
22917;DHT22;11624;53.250;7.456;2023-04-08T10:19:55;16.65;47.57
22917;DHT22;11624;53.250;7.456;2023-04-08T10:22:46;16.70;48.11
22917;DHT22;11624;53.250;7.456;2023-04-08T10:25:31;16.98;47.60
22917;DHT22;11624;53.250;7.456;2023-04-08T10:27:59;17.13;47.04
22917;DHT22;11624;53.250;7.456;2023-04-08T10:30:39;17.17;46.38
22917;DHT22;11624;53.250;7.456;2023-04-08T10:33:09;17.21;46.50
22917;DHT22;11624;53.250;7.456;2023-04-08T10:35:41;17.24;46.23
22917;DHT22;11624;53.250;7.456;2023-04-08T10:38:09;17.33;46.23
22917;DHT22;11624;53.250;7.456;2023-04-08T10:40:39;17.43;46.28
22917;DHT22;11624;53.250;7.456;2023-04-08T10:43:09;17.49;45.97
22917;DHT22;11624;53.250;7.456;2023-04-08T10:45:37;17.48;45.79
22917;DHT22;11624;53.250;7.456;2023-04-08T10:48:13;17.47;45.73
22917;DHT22;11624;53.250;7.456;2023-04-08T10:50:43;17.52;46.00
22917;DHT22;11624;53.250;7.456;2023-04-08T10:53:11;17.58;45.75
22917;DHT22;11624;53.250;7.456;2023-04-08T10:55:39;17.47;45.93
22917;DHT22;11624;53.250;7.456;2023-04-08T10:58:09;17.55;45.69
22917;DHT22;11624;53.250;7.456;2023-04-08T11:00:39;17.62;45.44
22917;DHT22;11624;53.250;7.456;2023-04-08T11:03:08;17.69;45.41
22917;DHT22;11624;53.250;7.456;2023-04-08T11:05:40;17.80;45.70
22917;DHT22;11624;53.250;7.456;2023-04-08T11:08:09;17.74;45.32
22917;DHT22;11624;53.250;7.456;2023-04-08T11:10:37;17.79;44.82
22917;DHT22;11624;53.250;7.456;2023-04-08T11:13:06;17.79;44.99
22917;DHT22;11624;53.250;7.456;2023-04-08T11:15:36;17.82;44.87
22917;DHT22;11624;53.250;7.456;2023-04-08T11:18:05;17.87;44.61
22917;DHT22;11624;53.250;7.456;2023-04-08T11:20:34;17.89;44.64
22917;DHT22;11624;53.250;7.456;2023-04-08T11:23:02;17.95;44.61
22917;DHT22;11624;53.250;7.456;2023-04-08T11:25:32;18.00;44.65
22917;DHT22;11624;53.250;7.456;2023-04-08T11:28:01;18.02;44.26
22917;DHT22;11624;53.250;7.456;2023-04-08T11:30:29;18.06;43.82
22917;DHT22;11624;53.250;7.456;2023-04-08T11:32:58;17.91;43.87
22917;DHT22;11624;53.250;7.456;2023-04-08T11:35:27;17.81;44.18
22917;DHT22;11624;53.250;7.456;2023-04-08T11:37:56;17.75;44.28
22917;DHT22;11624;53.250;7.456;2023-04-08T11:40:24;17.79;44.28
22917;DHT22;11624;53.250;7.456;2023-04-08T11:42:54;17.91;44.87
22917;DHT22;11624;53.250;7.456;2023-04-08T11:45:22;18.07;44.56
22917;DHT22;11624;53.250;7.456;2023-04-08T11:47:51;18.17;44.24
22917;DHT22;11624;53.250;7.456;2023-04-08T11:50:23;18.21;44.06
22917;DHT22;11624;53.250;7.456;2023-04-08T11:52:52;18.24;43.62
22917;DHT22;11624;53.250;7.456;2023-04-08T11:55:22;18.33;43.77
22917;DHT22;11624;53.250;7.456;2023-04-08T11:57:50;18.30;43.72
22917;DHT22;11624;53.250;7.456;2023-04-08T12:00:20;18.22;43.91
22917;DHT22;11624;53.250;7.456;2023-04-08T12:02:50;18.36;44.13
22917;DHT22;11624;53.250;7.456;2023-04-08T12:05:19;18.51;43.41
22917;DHT22;11624;53.250;7.456;2023-04-08T12:07:47;18.50;43.22
22917;DHT22;11624;53.250;7.456;2023-04-08T12:10:15;18.54;43.40
22917;DHT22;11624;53.250;7.456;2023-04-08T12:12:43;18.53;43.09
22917;DHT22;11624;53.250;7.456;2023-04-08T12:15:11;18.41;43.21
22917;DHT22;11624;53.250;7.456;2023-04-08T12:17:41;18.37;43.62
22917;DHT22;11624;53.250;7.456;2023-04-08T12:20:10;18.42;43.78
22917;DHT22;11624;53.250;7.456;2023-04-08T12:22:38;18.48;44.07
22917;DHT22;11624;53.250;7.456;2023-04-08T12:25:07;18.79;43.60
22917;DHT22;11624;53.250;7.456;2023-04-08T12:27:35;18.95;43.20
22917;DHT22;11624;53.250;7.456;2023-04-08T12:30:04;19.08;42.57
22917;DHT22;11624;53.250;7.456;2023-04-08T12:32:33;19.23;42.49
22917;DHT22;11624;53.250;7.456;2023-04-08T12:35:02;19.28;42.00
22917;DHT22;11624;53.250;7.456;2023-04-08T12:37:31;19.33;41.72
22917;DHT22;11624;53.250;7.456;2023-04-08T12:39:59;19.21;42.13
22917;DHT22;11624;53.250;7.456;2023-04-08T12:42:28;19.35;42.15
22917;DHT22;11624;53.250;7.456;2023-04-08T12:44:56;19.56;41.55
22917;DHT22;11624;53.250;7.456;2023-04-08T12:47:25;19.66;40.94
22917;DHT22;11624;53.250;7.456;2023-04-08T12:49:53;19.72;41.55
22917;DHT22;11624;53.250;7.456;2023-04-08T12:52:22;19.67;41.24
22917;DHT22;11624;53.250;7.456;2023-04-08T12:54:51;19.62;41.88
22917;DHT22;11624;53.250;7.456;2023-04-08T12:57:19;19.74;41.81
22917;DHT22;11624;53.250;7.456;2023-04-08T12:59:47;19.83;41.66
22917;DHT22;11624;53.250;7.456;2023-04-08T13:02:16;19.89;41.32
22917;DHT22;11624;53.250;7.456;2023-04-08T13:04:45;20.14;41.11
22917;DHT22;11624;53.250;7.456;2023-04-08T13:07:13;20.35;40.70
22917;DHT22;11624;53.250;7.456;2023-04-08T13:09:43;20.54;40.01
22917;DHT22;11624;53.250;7.456;2023-04-08T13:12:12;20.50;40.00
22917;DHT22;11624;53.250;7.456;2023-04-08T13:14:41;20.44;40.05
22917;DHT22;11624;53.250;7.456;2023-04-08T13:17:10;20.57;40.33
22917;DHT22;11624;53.250;7.456;2023-04-08T13:19:38;20.62;39.71
22917;DHT22;11624;53.250;7.456;2023-04-08T13:22:06;20.63;40.05
22917;DHT22;11624;53.250;7.456;2023-04-08T13:24:34;20.88;39.52
22917;DHT22;11624;53.250;7.456;2023-04-08T13:27:03;21.17;39.27
22917;DHT22;11624;53.250;7.456;2023-04-08T13:29:31;21.30;38.62
22917;DHT22;11624;53.250;7.456;2023-04-08T13:31:59;21.28;38.53
22917;DHT22;11624;53.250;7.456;2023-04-08T13:34:28;21.22;38.14
22917;DHT22;11624;53.250;7.456;2023-04-08T13:36:56;21.08;38.88
22917;DHT22;11624;53.250;7.456;2023-04-08T13:39:24;20.99;39.29
22917;DHT22;11624;53.250;7.456;2023-04-08T13:41:54;21.15;39.33
22917;DHT22;11624;53.250;7.456;2023-04-08T13:44:25;21.33;38.53
22917;DHT22;11624;53.250;7.456;2023-04-08T13:46:53;21.40;38.50
22917;DHT22;11624;53.250;7.456;2023-04-08T13:49:21;21.43;38.33
22917;DHT22;11624;53.250;7.456;2023-04-08T13:51:50;21.77;38.36
22917;DHT22;11624;53.250;7.456;2023-04-08T13:54:20;22.32;37.30
22917;DHT22;11624;53.250;7.456;2023-04-08T13:56:48;22.33;35.91
22917;DHT22;11624;53.250;7.456;2023-04-08T13:59:16;22.81;36.14
22917;DHT22;11624;53.250;7.456;2023-04-08T14:01:45;23.08;34.83
22917;DHT22;11624;53.250;7.456;2023-04-08T14:04:14;23.12;34.90
22917;DHT22;11624;53.250;7.456;2023-04-08T14:06:42;22.68;34.53
22917;DHT22;11624;53.250;7.456;2023-04-08T14:09:10;22.51;35.50
22917;DHT22;11624;53.250;7.456;2023-04-08T14:11:38;22.60;35.01
22917;DHT22;11624;53.250;7.456;2023-04-08T14:14:06;22.23;35.37
22917;DHT22;11624;53.250;7.456;2023-04-08T14:16:34;22.26;35.73
22917;DHT22;11624;53.250;7.456;2023-04-08T14:19:04;21.72;36.32
22917;DHT22;11624;53.250;7.456;2023-04-08T14:21:32;21.87;37.30
22917;DHT22;11624;53.250;7.456;2023-04-08T14:24:00;22.34;36.35
22917;DHT22;11624;53.250;7.456;2023-04-08T14:26:28;22.43;35.69
22917;DHT22;11624;53.250;7.456;2023-04-08T14:28:58;22.05;36.11
22917;DHT22;11624;53.250;7.456;2023-04-08T14:31:26;22.03;37.28
22917;DHT22;11624;53.250;7.456;2023-04-08T14:33:55;22.56;36.30
22917;DHT22;11624;53.250;7.456;2023-04-08T14:36:24;23.09;35.74
22917;DHT22;11624;53.250;7.456;2023-04-08T14:38:54;23.40;34.37
22917;DHT22;11624;53.250;7.456;2023-04-08T14:41:22;23.44;34.24
22917;DHT22;11624;53.250;7.456;2023-04-08T14:43:54;23.39;34.82
22917;DHT22;11624;53.250;7.456;2023-04-08T14:46:22;23.52;34.07
22917;DHT22;11624;53.250;7.456;2023-04-08T14:48:54;23.44;33.76
22917;DHT22;11624;53.250;7.456;2023-04-08T14:51:23;23.50;34.28
22917;DHT22;11624;53.250;7.456;2023-04-08T14:53:51;23.69;33.96
22917;DHT22;11624;53.250;7.456;2023-04-08T14:56:20;23.81;33.47
22917;DHT22;11624;53.250;7.456;2023-04-08T14:58:48;23.81;33.81
22917;DHT22;11624;53.250;7.456;2023-04-08T15:01:16;23.87;33.36
22917;DHT22;11624;53.250;7.456;2023-04-08T15:03:44;23.57;33.29
22917;DHT22;11624;53.250;7.456;2023-04-08T15:06:13;23.31;33.75
22917;DHT22;11624;53.250;7.456;2023-04-08T15:08:44;23.26;34.60
22917;DHT22;11624;53.250;7.456;2023-04-08T15:11:12;23.41;34.52
22917;DHT22;11624;53.250;7.456;2023-04-08T15:13:41;23.50;34.42
22917;DHT22;11624;53.250;7.456;2023-04-08T15:16:09;23.40;33.76
22917;DHT22;11624;53.250;7.456;2023-04-08T15:18:37;23.16;34.33
22917;DHT22;11624;53.250;7.456;2023-04-08T15:21:05;23.20;34.63
22917;DHT22;11624;53.250;7.456;2023-04-08T15:23:33;23.07;34.34
22917;DHT22;11624;53.250;7.456;2023-04-08T15:26:03;22.60;34.72
22917;DHT22;11624;53.250;7.456;2023-04-08T15:28:31;22.38;35.35
22917;DHT22;11624;53.250;7.456;2023-04-08T15:30:59;22.37;35.50
22917;DHT22;11624;53.250;7.456;2023-04-08T15:33:27;22.37;35.87
22917;DHT22;11624;53.250;7.456;2023-04-08T15:35:56;22.36;35.91
22917;DHT22;11624;53.250;7.456;2023-04-08T15:38:28;22.50;35.84
22917;DHT22;11624;53.250;7.456;2023-04-08T15:40:59;22.54;35.56
22917;DHT22;11624;53.250;7.456;2023-04-08T15:43:29;22.54;35.53